Muskoka, Canada
Current Conditions -  °F | °C
As of 7:00 PM on Monday 20 Oct 2014 (Local Time) from CYQA Reporting Station
Light Rain Light Rain  
Wind Chill: 44°   Ceiling: 300
Heat Index: 46°   Visibility: 2.2mi
Dew Point: 46°   Wind: 6mph
Humidity: 100%   Direction: 160°SSE
Pressure: 29.78"   Gusts: NA
Location:  44.9°N, 79.58°W
Report Text: CYQA 202300Z AUTO 16005KT 2 1/4SM -RA BR OVC003 08/08 A2978 RMK TS/LTNG TEMPO UNAVBL SLP093
Loading
Personal Weather Stations






























Interactive Weather Map
Tropical Storm Tracking
New forecast layout! Learn more

10-Day Weather Forecast

Advertisements
Track Severe Weather on mobile